sensor_id;sensor_type;location;lat;lon;timestamp;temperature;humidity
47521;DHT22;32291;52.010;4.446;2023-05-23T00:00:47;13.00;99.90
47521;DHT22;32291;52.010;4.446;2023-05-23T00:01:52;13.00;99.90
47521;DHT22;32291;52.010;4.446;2023-05-23T00:02:55;13.10;99.90
47521;DHT22;32291;52.010;4.446;2023-05-23T00:03:57;13.10;99.90
47521;DHT22;32291;52.010;4.446;2023-05-23T00:04:59;13.10;99.90
47521;DHT22;32291;52.010;4.446;2023-05-23T00:06:05;13.10;99.90
47521;DHT22;32291;52.010;4.446;2023-05-23T00:07:07;13.00;99.90
47521;DHT22;32291;52.010;4.446;2023-05-23T00:08:09;13.10;99.90
47521;DHT22;32291;52.010;4.446;2023-05-23T00:09:14;13.10;99.90
47521;DHT22;32291;52.010;4.446;2023-05-23T00:10:16;13.10;99.90
47521;DHT22;32291;52.010;4.446;2023-05-23T00:11:18;13.10;99.90
47521;DHT22;32291;52.010;4.446;2023-05-23T00:12:20;13.10;99.90
47521;DHT22;32291;52.010;4.446;2023-05-23T00:13:22;13.10;99.90
47521;DHT22;32291;52.010;4.446;2023-05-23T00:14:24;13.10;99.90
47521;DHT22;32291;52.010;4.446;2023-05-23T00:15:25;13.10;99.90
47521;DHT22;32291;52.010;4.446;2023-05-23T00:16:28;13.10;99.90
47521;DHT22;32291;52.010;4.446;2023-05-23T00:17:31;13.10;99.90
47521;DHT22;32291;52.010;4.446;2023-05-23T00:18:33;13.10;99.90
47521;DHT22;32291;52.010;4.446;2023-05-23T00:19:36;13.10;99.90
47521;DHT22;32291;52.010;4.446;2023-05-23T00:20:40;13.10;99.90
47521;DHT22;32291;52.010;4.446;2023-05-23T00:21:46;13.10;99.90
47521;DHT22;32291;52.010;4.446;2023-05-23T00:22:49;13.10;99.90
47521;DHT22;32291;52.010;4.446;2023-05-23T00:23:51;13.20;99.90
47521;DHT22;32291;52.010;4.446;2023-05-23T00:24:54;13.20;99.90
47521;DHT22;32291;52.010;4.446;2023-05-23T00:25:58;13.20;99.90
47521;DHT22;32291;52.010;4.446;2023-05-23T00:27:00;13.20;99.90
47521;DHT22;32291;52.010;4.446;2023-05-23T00:28:03;13.20;99.90
47521;DHT22;32291;52.010;4.446;2023-05-23T00:29:05;13.20;99.90
47521;DHT22;32291;52.010;4.446;2023-05-23T00:30:06;13.20;99.90
47521;DHT22;32291;52.010;4.446;2023-05-23T00:31:08;13.20;99.90
47521;DHT22;32291;52.010;4.446;2023-05-23T00:32:10;13.20;99.90
47521;DHT22;32291;52.010;4.446;2023-05-23T00:33:13;13.20;99.90
47521;DHT22;32291;52.010;4.446;2023-05-23T00:34:16;13.30;99.90
47521;DHT22;32291;52.010;4.446;2023-05-23T00:35:18;13.20;99.90
47521;DHT22;32291;52.010;4.446;2023-05-23T00:36:19;13.30;99.90
47521;DHT22;32291;52.010;4.446;2023-05-23T00:37:22;13.30;99.90
47521;DHT22;32291;52.010;4.446;2023-05-23T00:38:24;13.30;99.90
47521;DHT22;32291;52.010;4.446;2023-05-23T00:39:26;13.20;99.90
47521;DHT22;32291;52.010;4.446;2023-05-23T00:40:28;13.30;99.90
47521;DHT22;32291;52.010;4.446;2023-05-23T00:41:30;13.30;99.90
47521;DHT22;32291;52.010;4.446;2023-05-23T00:42:31;13.30;99.90
47521;DHT22;32291;52.010;4.446;2023-05-23T00:43:33;13.30;99.90
47521;DHT22;32291;52.010;4.446;2023-05-23T00:44:35;13.30;99.90
47521;DHT22;32291;52.010;4.446;2023-05-23T00:45:36;13.30;99.90
47521;DHT22;32291;52.010;4.446;2023-05-23T00:46:38;13.30;99.90
47521;DHT22;32291;52.010;4.446;2023-05-23T00:47:41;13.20;99.90
47521;DHT22;32291;52.010;4.446;2023-05-23T00:48:44;13.20;99.90
47521;DHT22;32291;52.010;4.446;2023-05-23T00:49:47;13.20;99.90
47521;DHT22;32291;52.010;4.446;2023-05-23T00:50:49;13.20;99.90
47521;DHT22;32291;52.010;4.446;2023-05-23T00:51:51;13.20;99.90
47521;DHT22;32291;52.010;4.446;2023-05-23T00:52:53;13.20;99.90
47521;DHT22;32291;52.010;4.446;2023-05-23T00:53:56;13.20;99.90
47521;DHT22;32291;52.010;4.446;2023-05-23T00:55:01;13.20;99.90
47521;DHT22;32291;52.010;4.446;2023-05-23T00:56:03;13.20;99.90
47521;DHT22;32291;52.010;4.446;2023-05-23T00:57:06;13.10;99.90
47521;DHT22;32291;52.010;4.446;2023-05-23T00:58:08;13.20;99.90
47521;DHT22;32291;52.010;4.446;2023-05-23T00:59:11;13.20;99.90
47521;DHT22;32291;52.010;4.446;2023-05-23T01:00:14;13.20;99.90
47521;DHT22;32291;52.010;4.446;2023-05-23T01:01:17;13.20;99.90
47521;DHT22;32291;52.010;4.446;2023-05-23T01:02:19;13.20;99.90
47521;DHT22;32291;52.010;4.446;2023-05-23T01:03:22;13.20;99.90
47521;DHT22;32291;52.010;4.446;2023-05-23T01:04:24;13.30;99.90
47521;DHT22;32291;52.010;4.446;2023-05-23T01:05:26;13.30;99.90
47521;DHT22;32291;52.010;4.446;2023-05-23T01:06:29;13.30;99.90
47521;DHT22;32291;52.010;4.446;2023-05-23T01:07:36;13.30;99.90
47521;DHT22;32291;52.010;4.446;2023-05-23T01:08:38;13.30;99.90
47521;DHT22;32291;52.010;4.446;2023-05-23T01:09:42;13.30;99.90
47521;DHT22;32291;52.010;4.446;2023-05-23T01:10:44;13.30;99.90
47521;DHT22;32291;52.010;4.446;2023-05-23T01:13:33;13.30;99.90
47521;DHT22;32291;52.010;4.446;2023-05-23T01:15:19;13.30;99.90
47521;DHT22;32291;52.010;4.446;2023-05-23T01:16:35;13.30;99.90
47521;DHT22;32291;52.010;4.446;2023-05-23T01:17:58;13.30;99.90
47521;DHT22;32291;52.010;4.446;2023-05-23T01:19:39;13.30;99.90
47521;DHT22;32291;52.010;4.446;2023-05-23T01:20:51;13.30;99.90
47521;DHT22;32291;52.010;4.446;2023-05-23T01:22:00;13.40;99.90
47521;DHT22;32291;52.010;4.446;2023-05-23T01:24:54;13.30;99.90
47521;DHT22;32291;52.010;4.446;2023-05-23T01:26:16;13.30;99.90
47521;DHT22;32291;52.010;4.446;2023-05-23T01:27:50;13.30;99.90
47521;DHT22;32291;52.010;4.446;2023-05-23T01:29:01;13.30;99.90
47521;DHT22;32291;52.010;4.446;2023-05-23T01:30:12;13.30;99.90
47521;DHT22;32291;52.010;4.446;2023-05-23T01:31:19;13.30;99.90
47521;DHT22;32291;52.010;4.446;2023-05-23T01:32:25;13.40;99.90
47521;DHT22;32291;52.010;4.446;2023-05-23T01:33:31;13.30;99.90
47521;DHT22;32291;52.010;4.446;2023-05-23T01:34:35;13.40;99.90
47521;DHT22;32291;52.010;4.446;2023-05-23T01:35:42;13.40;99.90
47521;DHT22;32291;52.010;4.446;2023-05-23T01:36:44;13.40;99.90
47521;DHT22;32291;52.010;4.446;2023-05-23T01:37:47;13.40;99.90
47521;DHT22;32291;52.010;4.446;2023-05-23T01:38:48;13.40;99.90
47521;DHT22;32291;52.010;4.446;2023-05-23T01:39:51;13.40;99.90
47521;DHT22;32291;52.010;4.446;2023-05-23T01:40:53;13.40;99.90
47521;DHT22;32291;52.010;4.446;2023-05-23T01:41:55;13.40;99.90
47521;DHT22;32291;52.010;4.446;2023-05-23T01:42:57;13.40;99.90
47521;DHT22;32291;52.010;4.446;2023-05-23T01:43:59;13.40;99.90
47521;DHT22;32291;52.010;4.446;2023-05-23T01:45:02;13.40;99.90
47521;DHT22;32291;52.010;4.446;2023-05-23T01:46:06;13.40;99.90
47521;DHT22;32291;52.010;4.446;2023-05-23T01:47:09;13.40;99.90
47521;DHT22;32291;52.010;4.446;2023-05-23T01:48:13;13.30;99.90
47521;DHT22;32291;52.010;4.446;2023-05-23T01:49:17;13.40;99.90
47521;DHT22;32291;52.010;4.446;2023-05-23T01:50:23;13.40;99.90
47521;DHT22;32291;52.010;4.446;2023-05-23T01:51:26;13.40;99.90
47521;DHT22;32291;52.010;4.446;2023-05-23T01:52:28;13.40;99.90
47521;DHT22;32291;52.010;4.446;2023-05-23T01:53:31;13.40;99.90
47521;DHT22;32291;52.010;4.446;2023-05-23T01:54:36;13.40;99.90
47521;DHT22;32291;52.010;4.446;2023-05-23T01:55:40;13.40;99.90
47521;DHT22;32291;52.010;4.446;2023-05-23T01:56:43;13.30;99.90
47521;DHT22;32291;52.010;4.446;2023-05-23T01:57:48;13.40;99.90
47521;DHT22;32291;52.010;4.446;2023-05-23T01:58:51;13.40;99.90
47521;DHT22;32291;52.010;4.446;2023-05-23T01:59:53;13.40;99.90
47521;DHT22;32291;52.010;4.446;2023-05-23T02:00:55;13.30;99.90
47521;DHT22;32291;52.010;4.446;2023-05-23T02:01:57;13.40;99.90
47521;DHT22;32291;52.010;4.446;2023-05-23T02:02:59;13.40;99.90
47521;DHT22;32291;52.010;4.446;2023-05-23T02:04:01;13.40;99.90
47521;DHT22;32291;52.010;4.446;2023-05-23T02:05:05;13.40;99.90
47521;DHT22;32291;52.010;4.446;2023-05-23T02:06:07;13.40;99.90
47521;DHT22;32291;52.010;4.446;2023-05-23T02:07:09;13.40;99.90
47521;DHT22;32291;52.010;4.446;2023-05-23T02:08:10;13.40;99.90
47521;DHT22;32291;52.010;4.446;2023-05-23T02:09:12;13.40;99.90
47521;DHT22;32291;52.010;4.446;2023-05-23T02:10:14;13.40;99.90
47521;DHT22;32291;52.010;4.446;2023-05-23T02:11:16;13.40;99.90
47521;DHT22;32291;52.010;4.446;2023-05-23T02:12:17;13.40;99.90
47521;DHT22;32291;52.010;4.446;2023-05-23T02:13:19;13.40;99.90
47521;DHT22;32291;52.010;4.446;2023-05-23T02:14:21;13.40;99.90
47521;DHT22;32291;52.010;4.446;2023-05-23T02:15:24;13.40;99.90
47521;DHT22;32291;52.010;4.446;2023-05-23T02:16:26;13.30;99.90
47521;DHT22;32291;52.010;4.446;2023-05-23T02:17:28;13.30;99.90
47521;DHT22;32291;52.010;4.446;2023-05-23T02:18:30;13.30;99.90
47521;DHT22;32291;52.010;4.446;2023-05-23T02:19:32;13.30;99.90
47521;DHT22;32291;52.010;4.446;2023-05-23T02:20:33;13.30;99.90
47521;DHT22;32291;52.010;4.446;2023-05-23T02:21:35;13.30;99.90
47521;DHT22;32291;52.010;4.446;2023-05-23T02:22:38;13.30;99.90
47521;DHT22;32291;52.010;4.446;2023-05-23T02:23:40;13.30;99.90
47521;DHT22;32291;52.010;4.446;2023-05-23T02:24:42;13.20;99.90
47521;DHT22;32291;52.010;4.446;2023-05-23T02:25:44;13.30;99.90
47521;DHT22;32291;52.010;4.446;2023-05-23T02:26:46;13.30;99.90
47521;DHT22;32291;52.010;4.446;2023-05-23T02:27:47;13.30;99.90
47521;DHT22;32291;52.010;4.446;2023-05-23T02:28:49;13.30;99.90
47521;DHT22;32291;52.010;4.446;2023-05-23T02:29:51;13.30;99.90
47521;DHT22;32291;52.010;4.446;2023-05-23T02:30:53;13.30;99.90
47521;DHT22;32291;52.010;4.446;2023-05-23T02:31:55;13.30;99.90
47521;DHT22;32291;52.010;4.446;2023-05-23T02:32:57;13.30;99.90
47521;DHT22;32291;52.010;4.446;2023-05-23T02:33:58;13.20;99.90
47521;DHT22;32291;52.010;4.446;2023-05-23T02:35:00;13.20;99.90
47521;DHT22;32291;52.010;4.446;2023-05-23T02:36:02;13.20;99.90
47521;DHT22;32291;52.010;4.446;2023-05-23T02:37:04;13.20;99.90
47521;DHT22;32291;52.010;4.446;2023-05-23T02:38:06;13.20;99.90
47521;DHT22;32291;52.010;4.446;2023-05-23T02:39:07;13.20;99.90
47521;DHT22;32291;52.010;4.446;2023-05-23T02:40:10;13.20;99.90
47521;DHT22;32291;52.010;4.446;2023-05-23T02:41:12;13.20;99.90
47521;DHT22;32291;52.010;4.446;2023-05-23T02:42:14;13.20;99.90
47521;DHT22;32291;52.010;4.446;2023-05-23T02:43:16;13.20;99.90
47521;DHT22;32291;52.010;4.446;2023-05-23T02:44:18;13.20;99.90
47521;DHT22;32291;52.010;4.446;2023-05-23T02:45:20;13.20;99.90
47521;DHT22;32291;52.010;4.446;2023-05-23T02:46:22;13.20;99.90
47521;DHT22;32291;52.010;4.446;2023-05-23T02:47:24;13.30;99.90
47521;DHT22;32291;52.010;4.446;2023-05-23T02:48:26;13.20;99.90
47521;DHT22;32291;52.010;4.446;2023-05-23T02:49:28;13.20;99.90
47521;DHT22;32291;52.010;4.446;2023-05-23T02:50:29;13.20;99.90
47521;DHT22;32291;52.010;4.446;2023-05-23T02:51:31;13.20;99.90
47521;DHT22;32291;52.010;4.446;2023-05-23T02:52:33;13.20;99.90
47521;DHT22;32291;52.010;4.446;2023-05-23T02:53:35;13.10;99.90
47521;DHT22;32291;52.010;4.446;2023-05-23T02:54:37;13.20;99.90
47521;DHT22;32291;52.010;4.446;2023-05-23T02:55:39;13.10;99.90
47521;DHT22;32291;52.010;4.446;2023-05-23T02:56:41;13.10;99.90
47521;DHT22;32291;52.010;4.446;2023-05-23T02:57:43;13.10;99.90
47521;DHT22;32291;52.010;4.446;2023-05-23T02:58:45;13.10;99.90
47521;DHT22;32291;52.010;4.446;2023-05-23T02:59:46;13.10;99.90
47521;DHT22;32291;52.010;4.446;2023-05-23T03:00:48;13.10;99.90
47521;DHT22;32291;52.010;4.446;2023-05-23T03:01:49;13.10;99.90
47521;DHT22;32291;52.010;4.446;2023-05-23T03:02:51;13.10;99.90
47521;DHT22;32291;52.010;4.446;2023-05-23T03:03:53;13.10;99.90
47521;DHT22;32291;52.010;4.446;2023-05-23T03:04:54;13.10;99.90
47521;DHT22;32291;52.010;4.446;2023-05-23T03:05:58;13.10;99.90
47521;DHT22;32291;52.010;4.446;2023-05-23T03:07:00;13.20;99.90
47521;DHT22;32291;52.010;4.446;2023-05-23T03:08:03;13.20;99.90
47521;DHT22;32291;52.010;4.446;2023-05-23T03:09:07;13.20;99.90
47521;DHT22;32291;52.010;4.446;2023-05-23T03:10:09;13.20;99.90
47521;DHT22;32291;52.010;4.446;2023-05-23T03:11:11;13.20;99.90
47521;DHT22;32291;52.010;4.446;2023-05-23T03:12:13;13.20;99.90
47521;DHT22;32291;52.010;4.446;2023-05-23T03:13:17;13.10;99.90
47521;DHT22;32291;52.010;4.446;2023-05-23T03:14:19;13.10;99.90
47521;DHT22;32291;52.010;4.446;2023-05-23T03:15:21;13.10;99.90
47521;DHT22;32291;52.010;4.446;2023-05-23T03:16:23;13.10;99.90
47521;DHT22;32291;52.010;4.446;2023-05-23T03:17:25;13.10;99.90
47521;DHT22;32291;52.010;4.446;2023-05-23T03:18:27;13.10;99.90
47521;DHT22;32291;52.010;4.446;2023-05-23T03:19:29;13.10;99.90
47521;DHT22;32291;52.010;4.446;2023-05-23T03:20:31;13.10;99.90
47521;DHT22;32291;52.010;4.446;2023-05-23T03:21:33;13.00;99.90
47521;DHT22;32291;52.010;4.446;2023-05-23T03:22:36;13.00;99.90
47521;DHT22;32291;52.010;4.446;2023-05-23T03:23:37;13.00;99.90
47521;DHT22;32291;52.010;4.446;2023-05-23T03:24:39;13.00;99.90
47521;DHT22;32291;52.010;4.446;2023-05-23T03:25:42;13.00;99.90
47521;DHT22;32291;52.010;4.446;2023-05-23T03:26:43;13.00;99.90
47521;DHT22;32291;52.010;4.446;2023-05-23T03:27:45;13.00;99.90
47521;DHT22;32291;52.010;4.446;2023-05-23T03:28:48;12.90;99.90
47521;DHT22;32291;52.010;4.446;2023-05-23T03:29:51;12.90;99.90
47521;DHT22;32291;52.010;4.446;2023-05-23T03:30:54;12.90;99.90
47521;DHT22;32291;52.010;4.446;2023-05-23T03:31:55;12.90;99.90
47521;DHT22;32291;52.010;4.446;2023-05-23T03:32:57;12.90;99.90
47521;DHT22;32291;52.010;4.446;2023-05-23T03:33:59;12.90;99.90
47521;DHT22;32291;52.010;4.446;2023-05-23T03:35:00;12.90;99.90
47521;DHT22;32291;52.010;4.446;2023-05-23T03:36:02;12.80;99.90
47521;DHT22;32291;52.010;4.446;2023-05-23T03:37:04;12.80;99.90
47521;DHT22;32291;52.010;4.446;2023-05-23T03:38:06;12.70;99.90
47521;DHT22;32291;52.010;4.446;2023-05-23T03:39:08;12.70;99.90
47521;DHT22;32291;52.010;4.446;2023-05-23T03:40:09;12.70;99.90
47521;DHT22;32291;52.010;4.446;2023-05-23T03:41:11;12.70;99.90
47521;DHT22;32291;52.010;4.446;2023-05-23T03:42:13;12.70;99.90
47521;DHT22;32291;52.010;4.446;2023-05-23T03:43:15;12.70;99.90
47521;DHT22;32291;52.010;4.446;2023-05-23T03:44:16;12.70;99.90
47521;DHT22;32291;52.010;4.446;2023-05-23T03:45:18;12.70;99.90
47521;DHT22;32291;52.010;4.446;2023-05-23T03:46:20;12.80;99.90
47521;DHT22;32291;52.010;4.446;2023-05-23T03:47:22;12.80;99.90
47521;DHT22;32291;52.010;4.446;2023-05-23T03:48:26;12.80;99.90
47521;DHT22;32291;52.010;4.446;2023-05-23T03:49:30;12.70;99.90
47521;DHT22;32291;52.010;4.446;2023-05-23T03:50:31;12.70;99.90
47521;DHT22;32291;52.010;4.446;2023-05-23T03:51:33;12.70;99.90
47521;DHT22;32291;52.010;4.446;2023-05-23T03:52:35;12.70;99.90
47521;DHT22;32291;52.010;4.446;2023-05-23T03:53:37;12.80;99.90
47521;DHT22;32291;52.010;4.446;2023-05-23T03:54:39;12.70;99.90
47521;DHT22;32291;52.010;4.446;2023-05-23T03:55:41;12.80;99.90
47521;DHT22;32291;52.010;4.446;2023-05-23T03:56:42;12.70;99.90
47521;DHT22;32291;52.010;4.446;2023-05-23T03:57:44;12.70;99.90
47521;DHT22;32291;52.010;4.446;2023-05-23T03:58:46;12.60;99.90
47521;DHT22;32291;52.010;4.446;2023-05-23T03:59:48;12.60;99.90
47521;DHT22;32291;52.010;4.446;2023-05-23T04:00:50;12.50;99.90
47521;DHT22;32291;52.010;4.446;2023-05-23T04:01:53;12.50;99.90
47521;DHT22;32291;52.010;4.446;2023-05-23T04:02:55;12.40;99.90
47521;DHT22;32291;52.010;4.446;2023-05-23T04:03:57;12.40;99.90
47521;DHT22;32291;52.010;4.446;2023-05-23T04:05:00;12.30;99.90
47521;DHT22;32291;52.010;4.446;2023-05-23T04:06:03;12.30;99.90
47521;DHT22;32291;52.010;4.446;2023-05-23T04:07:05;12.30;99.90
47521;DHT22;32291;52.010;4.446;2023-05-23T04:08:08;12.30;99.90
47521;DHT22;32291;52.010;4.446;2023-05-23T04:09:10;12.30;99.90
47521;DHT22;32291;52.010;4.446;2023-05-23T04:10:12;12.30;99.90
47521;DHT22;32291;52.010;4.446;2023-05-23T04:11:14;12.30;99.90
47521;DHT22;32291;52.010;4.446;2023-05-23T04:12:16;12.20;99.90
47521;DHT22;32291;52.010;4.446;2023-05-23T04:13:18;12.30;99.90
47521;DHT22;32291;52.010;4.446;2023-05-23T04:14:20;12.30;99.90
47521;DHT22;32291;52.010;4.446;2023-05-23T04:15:22;12.30;99.90
47521;DHT22;32291;52.010;4.446;2023-05-23T04:16:24;12.30;99.90
47521;DHT22;32291;52.010;4.446;2023-05-23T04:17:26;12.30;99.90
47521;DHT22;32291;52.010;4.446;2023-05-23T04:18:30;12.30;99.90
47521;DHT22;32291;52.010;4.446;2023-05-23T04:19:33;12.40;99.90
47521;DHT22;32291;52.010;4.446;2023-05-23T04:20:36;12.40;99.90
47521;DHT22;32291;52.010;4.446;2023-05-23T04:21:37;12.40;99.90
47521;DHT22;32291;52.010;4.446;2023-05-23T04:22:39;12.40;99.90
47521;DHT22;32291;52.010;4.446;2023-05-23T04:23:41;12.40;99.90
47521;DHT22;32291;52.010;4.446;2023-05-23T04:24:43;12.40;99.90
47521;DHT22;32291;52.010;4.446;2023-05-23T04:25:45;12.40;99.90
47521;DHT22;32291;52.010;4.446;2023-05-23T04:26:48;12.40;99.90
47521;DHT22;32291;52.010;4.446;2023-05-23T04:27:50;12.40;99.90
47521;DHT22;32291;52.010;4.446;2023-05-23T04:28:54;12.40;99.90
47521;DHT22;32291;52.010;4.446;2023-05-23T04:29:56;12.30;99.90
47521;DHT22;32291;52.010;4.446;2023-05-23T04:30:58;12.40;99.90
47521;DHT22;32291;52.010;4.446;2023-05-23T04:32:03;12.40;99.90
47521;DHT22;32291;52.010;4.446;2023-05-23T04:33:06;12.40;99.90
47521;DHT22;32291;52.010;4.446;2023-05-23T04:34:07;12.40;99.90
47521;DHT22;32291;52.010;4.446;2023-05-23T04:35:09;12.40;99.90
47521;DHT22;32291;52.010;4.446;2023-05-23T04:36:12;12.50;99.90
47521;DHT22;32291;52.010;4.446;2023-05-23T04:37:13;12.50;99.90
47521;DHT22;32291;52.010;4.446;2023-05-23T04:38:16;12.60;99.90
47521;DHT22;32291;52.010;4.446;2023-05-23T04:39:18;12.50;99.90
47521;DHT22;32291;52.010;4.446;2023-05-23T04:40:21;12.60;99.90
47521;DHT22;32291;52.010;4.446;2023-05-23T04:41:25;12.60;99.90
47521;DHT22;32291;52.010;4.446;2023-05-23T04:42:26;12.60;99.90
47521;DHT22;32291;52.010;4.446;2023-05-23T04:43:29;12.60;99.90
47521;DHT22;32291;52.010;4.446;2023-05-23T04:44:33;12.60;99.90
47521;DHT22;32291;52.010;4.446;2023-05-23T04:45:37;12.60;99.90
47521;DHT22;32291;52.010;4.446;2023-05-23T04:46:42;12.60;99.90
47521;DHT22;32291;52.010;4.446;2023-05-23T04:47:45;12.60;99.90
47521;DHT22;32291;52.010;4.446;2023-05-23T04:48:47;12.60;99.90
47521;DHT22;32291;52.010;4.446;2023-05-23T04:49:50;12.60;99.90
47521;DHT22;32291;52.010;4.446;2023-05-23T04:50:54;12.60;99.90
47521;DHT22;32291;52.010;4.446;2023-05-23T04:51:56;12.60;99.90
47521;DHT22;32291;52.010;4.446;2023-05-23T04:52:58;12.60;99.90
47521;DHT22;32291;52.010;4.446;2023-05-23T04:54:01;12.70;99.90
47521;DHT22;32291;52.010;4.446;2023-05-23T04:55:03;12.70;99.90
47521;DHT22;32291;52.010;4.446;2023-05-23T04:56:06;12.70;99.90
47521;DHT22;32291;52.010;4.446;2023-05-23T04:57:09;12.70;99.90
47521;DHT22;32291;52.010;4.446;2023-05-23T04:58:11;12.70;99.90
47521;DHT22;32291;52.010;4.446;2023-05-23T04:59:13;12.70;99.90
47521;DHT22;32291;52.010;4.446;2023-05-23T05:00:16;12.70;99.90
47521;DHT22;32291;52.010;4.446;2023-05-23T05:01:18;12.70;99.90
47521;DHT22;32291;52.010;4.446;2023-05-23T05:02:20;12.70;99.90
47521;DHT22;32291;52.010;4.446;2023-05-23T05:03:22;12.80;99.90
47521;DHT22;32291;52.010;4.446;2023-05-23T05:04:25;12.80;99.90
47521;DHT22;32291;52.010;4.446;2023-05-23T05:05:26;12.70;99.90
47521;DHT22;32291;52.010;4.446;2023-05-23T05:06:28;12.70;99.90
47521;DHT22;32291;52.010;4.446;2023-05-23T05:07:31;12.70;99.90
47521;DHT22;32291;52.010;4.446;2023-05-23T05:08:32;12.70;99.90
47521;DHT22;32291;52.010;4.446;2023-05-23T05:09:34;12.70;99.90
47521;DHT22;32291;52.010;4.446;2023-05-23T05:10:38;12.70;99.90
47521;DHT22;32291;52.010;4.446;2023-05-23T05:11:40;12.70;99.90
47521;DHT22;32291;52.010;4.446;2023-05-23T05:12:46;12.70;99.90
47521;DHT22;32291;52.010;4.446;2023-05-23T05:13:49;12.70;99.90
47521;DHT22;32291;52.010;4.446;2023-05-23T05:14:52;12.60;99.90
47521;DHT22;32291;52.010;4.446;2023-05-23T05:15:54;12.60;99.90
47521;DHT22;32291;52.010;4.446;2023-05-23T05:16:56;12.60;99.90
47521;DHT22;32291;52.010;4.446;2023-05-23T05:17:58;12.60;99.90
47521;DHT22;32291;52.010;4.446;2023-05-23T05:19:00;12.60;99.90
47521;DHT22;32291;52.010;4.446;2023-05-23T05:20:03;12.60;99.90
47521;DHT22;32291;52.010;4.446;2023-05-23T05:21:08;12.60;99.90
47521;DHT22;32291;52.010;4.446;2023-05-23T05:22:10;12.60;99.90
47521;DHT22;32291;52.010;4.446;2023-05-23T05:23:12;12.60;99.90
47521;DHT22;32291;52.010;4.446;2023-05-23T05:24:14;12.60;99.90
47521;DHT22;32291;52.010;4.446;2023-05-23T05:25:16;12.60;99.90
47521;DHT22;32291;52.010;4.446;2023-05-23T05:26:18;12.60;99.90
47521;DHT22;32291;52.010;4.446;2023-05-23T05:27:19;12.70;99.90
47521;DHT22;32291;52.010;4.446;2023-05-23T05:28:21;12.70;99.90
47521;DHT22;32291;52.010;4.446;2023-05-23T05:29:23;12.70;99.90
47521;DHT22;32291;52.010;4.446;2023-05-23T05:30:25;12.70;99.90
47521;DHT22;32291;52.010;4.446;2023-05-23T05:31:27;12.70;99.90
47521;DHT22;32291;52.010;4.446;2023-05-23T05:32:30;12.80;99.90
47521;DHT22;32291;52.010;4.446;2023-05-23T05:33:33;12.80;99.90
47521;DHT22;32291;52.010;4.446;2023-05-23T05:34:36;12.80;99.90
47521;DHT22;32291;52.010;4.446;2023-05-23T05:35:38;12.80;99.90
47521;DHT22;32291;52.010;4.446;2023-05-23T05:36:40;12.90;99.90
47521;DHT22;32291;52.010;4.446;2023-05-23T05:37:47;12.90;99.90
47521;DHT22;32291;52.010;4.446;2023-05-23T05:38:49;12.90;99.90
47521;DHT22;32291;52.010;4.446;2023-05-23T05:39:52;12.90;99.90
47521;DHT22;32291;52.010;4.446;2023-05-23T05:40:54;12.90;99.90
47521;DHT22;32291;52.010;4.446;2023-05-23T05:41:56;12.90;99.90
47521;DHT22;32291;52.010;4.446;2023-05-23T05:42:57;12.90;99.90
47521;DHT22;32291;52.010;4.446;2023-05-23T05:43:59;12.90;99.90
47521;DHT22;32291;52.010;4.446;2023-05-23T05:45:01;12.80;99.90
47521;DHT22;32291;52.010;4.446;2023-05-23T05:46:02;12.80;99.90
47521;DHT22;32291;52.010;4.446;2023-05-23T05:47:04;12.80;99.90
47521;DHT22;32291;52.010;4.446;2023-05-23T05:48:06;12.80;99.90
47521;DHT22;32291;52.010;4.446;2023-05-23T05:49:08;12.80;99.90
47521;DHT22;32291;52.010;4.446;2023-05-23T05:50:11;12.70;99.90
47521;DHT22;32291;52.010;4.446;2023-05-23T05:51:13;12.70;99.90
47521;DHT22;32291;52.010;4.446;2023-05-23T05:52:15;12.70;99.90
47521;DHT22;32291;52.010;4.446;2023-05-23T05:53:17;12.70;99.90
47521;DHT22;32291;52.010;4.446;2023-05-23T05:54:18;12.70;99.90
47521;DHT22;32291;52.010;4.446;2023-05-23T05:55:20;12.70;99.90
47521;DHT22;32291;52.010;4.446;2023-05-23T05:56:21;12.60;99.90
47521;DHT22;32291;52.010;4.446;2023-05-23T05:57:23;12.60;99.90
47521;DHT22;32291;52.010;4.446;2023-05-23T05:58:25;12.60;99.90
47521;DHT22;32291;52.010;4.446;2023-05-23T05:59:27;12.70;99.90
47521;DHT22;32291;52.010;4.446;2023-05-23T06:00:28;12.60;99.90
47521;DHT22;32291;52.010;4.446;2023-05-23T06:01:30;12.60;99.90
47521;DHT22;32291;52.010;4.446;2023-05-23T06:02:32;12.60;99.90
47521;DHT22;32291;52.010;4.446;2023-05-23T06:03:34;12.60;99.90
47521;DHT22;32291;52.010;4.446;2023-05-23T06:04:35;12.60;99.90
47521;DHT22;32291;52.010;4.446;2023-05-23T06:05:37;12.60;99.90
47521;DHT22;32291;52.010;4.446;2023-05-23T06:06:39;12.60;99.90
47521;DHT22;32291;52.010;4.446;2023-05-23T06:07:42;12.70;99.90
47521;DHT22;32291;52.010;4.446;2023-05-23T06:08:44;12.70;99.90
47521;DHT22;32291;52.010;4.446;2023-05-23T06:09:46;12.70;99.90
47521;DHT22;32291;52.010;4.446;2023-05-23T06:10:48;12.70;99.90
47521;DHT22;32291;52.010;4.446;2023-05-23T06:11:50;12.70;99.90
47521;DHT22;32291;52.010;4.446;2023-05-23T06:12:52;12.70;99.90
47521;DHT22;32291;52.010;4.446;2023-05-23T06:13:54;12.80;99.90
47521;DHT22;32291;52.010;4.446;2023-05-23T06:14:55;12.80;99.90
47521;DHT22;32291;52.010;4.446;2023-05-23T06:15:57;12.80;99.90
47521;DHT22;32291;52.010;4.446;2023-05-23T06:16:58;12.80;99.90
47521;DHT22;32291;52.010;4.446;2023-05-23T06:18:00;12.80;99.90
47521;DHT22;32291;52.010;4.446;2023-05-23T06:19:02;12.80;99.90
47521;DHT22;32291;52.010;4.446;2023-05-23T06:20:04;12.70;99.90
47521;DHT22;32291;52.010;4.446;2023-05-23T06:21:06;12.60;99.90
47521;DHT22;32291;52.010;4.446;2023-05-23T06:22:07;12.70;99.90
47521;DHT22;32291;52.010;4.446;2023-05-23T06:23:09;12.70;99.90
47521;DHT22;32291;52.010;4.446;2023-05-23T06:24:11;12.70;99.90
47521;DHT22;32291;52.010;4.446;2023-05-23T06:25:13;12.70;99.90
47521;DHT22;32291;52.010;4.446;2023-05-23T06:26:15;12.70;99.90
47521;DHT22;32291;52.010;4.446;2023-05-23T06:27:17;12.60;99.90
47521;DHT22;32291;52.010;4.446;2023-05-23T06:28:18;12.60;99.90
47521;DHT22;32291;52.010;4.446;2023-05-23T06:29:20;12.50;99.90
47521;DHT22;32291;52.010;4.446;2023-05-23T06:30:21;12.50;99.90
47521;DHT22;32291;52.010;4.446;2023-05-23T06:31:24;12.50;99.90
47521;DHT22;32291;52.010;4.446;2023-05-23T06:32:26;12.60;99.90
47521;DHT22;32291;52.010;4.446;2023-05-23T06:33:28;12.60;99.90
47521;DHT22;32291;52.010;4.446;2023-05-23T06:34:31;12.60;99.90
47521;DHT22;32291;52.010;4.446;2023-05-23T06:35:33;12.60;99.90
47521;DHT22;32291;52.010;4.446;2023-05-23T06:36:34;12.70;99.90
47521;DHT22;32291;52.010;4.446;2023-05-23T06:37:36;12.60;99.90
47521;DHT22;32291;52.010;4.446;2023-05-23T06:38:38;12.60;99.90
47521;DHT22;32291;52.010;4.446;2023-05-23T06:39:40;12.50;99.90
47521;DHT22;32291;52.010;4.446;2023-05-23T06:40:42;12.60;99.90